Terminal Aerodrome Forecast
Issued by NWS

Home | Current Version | Previous Version | Text Only | Print | Product List | Glossary On
Versions: 1 2 3 4 5 6 7 8 9 10 11 12 13 14 15 16 17 18 19 20 21 22 23
000
FTUS42 KGSP 221501 AAB
TAFGMU
TAF AMD
KGMU 221501Z 2215/2312 04011KT 5SM -DZ BR OVC007
      TEMPO 2215/2218 2SM -DZ BR OVC004
     FM221800 05008KT P6SM OVC012
     FM230100 05008KT 4SM -DZ BR OVC007
     FM230400 05008KT 3SM -RA BR OVC005
     FM230800 04007KT 2SM -RA BR OVC003=

USA.gov is the U.S. government's official web portal to all federal, state and local government web resources and services.